BelgiumFixed distance
Le Trail des Bosses 45 km
24 Feb2018
Distance
45km
Finishers
114104 men10 women
Winning time
3:35:52h
Median pace
9.01km/h
Pace distribution
114 finishers · 6.86–12.51 km/h · mean 9.18
Every finisher ran the same 45 km course, so these paces are directly comparable.
Histogram of finisher pace. 114 finishers ranged from 6.86 to 12.51 kilometres per hour, with a mean of 9.18 and a median of 9.01. The busiest band is 8.5 to 9.0 kilometres per hour, with 17 finishers.
Results
Ranks 1–50 of 114
| Rank | Runner | Time | Pace | Cat. | Placing |
|---|---|---|---|---|---|
| 1 | Olympique Grand | 3:35:52h | 12.51 | M45 | 1st M · 1st M45 |
| 2 | *Gent | 3:44:21h | 12.04 | M23 | 2nd M · 1st M23 |
| 3 | Tjak | 3:45:15h | 11.99 | M23 | 3rd M · 2nd M23 |
| 4 | Jeroen Vandoorn | 3:50:10h | 11.73 | M23 | 4th M · 3rd M23 |
| 5 | *Scheldewindeke | 3:54:03h | 11.54 | M50 | 5th M · 1st M50 |
| 6 | BIR | 3:56:09h | 11.43 | M35 | 6th M · 1st M35 |
| 7 | *Huy | 3:59:48h | 11.26 | M35 | 7th M · 2nd M35 |
| 8 | Zatopek Namur | 4:00:35h | 11.22 | M23 | 8th M · 4th M23 |
| 9 | *Puurs | 4:00:49h | 11.21 | M23 | 9th M · 5th M23 |
| 10 | Born To Run | 4:03:14h | 11.10 | M23 | 10th M · 6th M23 |
| 11 | Born To Run | 4:05:16h | 11.01 | M35 | 11th M · 3rd M35 |
| 12 | *Lasne | 4:06:56h | 10.93 | M23 | 12th M · 7th M23 |
| 13 | RCB | 4:07:48h | 10.90 | M40 | 13th M · 1st M40 |
| 14 | Trails.Sazza.de | 4:08:27h | 10.87 | M45 | 14th M · 2nd M45 |
| 15 | *La Hestre | 4:10:32h | 10.78 | M45 | 15th M · 3rd M45 |
| 16 | *Lasne | 4:10:50h | 10.76 | M35 | 16th M · 4th M35 |
| 17 | *Bruxelles | 4:11:00h | 10.76 | M40 | 17th M · 2nd M40 |
| 18 | Run Attitude | 4:11:37h | 10.73 | M23 | 18th M · 8th M23 |
| 19 | *Biesmes | 4:16:09h | 10.54 | M55 | 19th M · 1st M55 |
| 20 | *Torhout | 4:16:29h | 10.53 | M40 | 20th M · 3rd M40 |
| 21 | Morineau | 4:16:59h | 10.51 | M50 | 21st M · 2nd M50 |
| 22 | SPT Wavre | 4:18:15h | 10.46 | M35 | 22nd M · 5th M35 |
| 23 | 4:18:25h | 10.45 | M55 | 23rd M · 2nd M55 | |
| 24 | *Petit-Enghien/Letteli... | 4:18:28h | 10.45 | M23 | 24th M · 9th M23 |
| 25 | Gentrunningteam | 4:18:50h | 10.43 | M55 | 25th M · 3rd M55 |
| 26 | Coachrunning | 4:19:05h | 10.42 | M45 | 26th M · 4th M45 |
| 27 | Mohammed | 4:21:08h | 10.34 | M45 | 27th M · 5th M45 |
| 28 | Rtto | 4:21:12h | 10.34 | M45 | 28th M · 6th M45 |
| 29 | Usbw | 4:22:07h | 10.30 | M23 | 29th M · 10th M23 |
| 30 | Hiking In Belgi | 4:22:45h | 10.28 | M35 | 30th M · 6th M35 |
| 31 | Joggingclub WEV | 4:24:10h | 10.22 | M35 | 31st M · 7th M35 |
| 32 | Team Anna | 4:24:46h | 10.20 | M45 | 32nd M · 7th M45 |
| 33 | Aclo | 4:25:34h | 10.17 | M50 | 33rd M · 3rd M50 |
| 34 | VAC | 4:29:52h | 10.01 | M35 | 34th M · 8th M35 |
| 35 | *Bruxelles | 4:30:28h | 9.98 | M35 | 35th M · 9th M35 |
| 36 | *Mollem | 4:30:57h | 9.96 | M23 | 36th M · 11th M23 |
| 37 | *Duffel | 4:33:10h | 9.88 | M40 | 37th M · 4th M40 |
| 38 | *Luttre | 4:33:12h | 9.88 | M55 | 38th M · 4th M55 |
| 39 | *Lewarde | 4:33:30h | 9.87 | M35 | 39th M · 10th M35 |
| 40 | Templeuve | 4:36:47h | 9.76 | M35 | 40th M · 11th M35 |
| 41 | Facerunnig | 4:36:57h | 9.75 | M50 | 41st M · 4th M50 |
| 42 | Ultramabouls | 4:38:41h | 9.69 | M45 | 42nd M · 8th M45 |
| 43 | Trakks | 4:40:07h | 9.64 | W45 | 1st F · 1st W45 |
| 44 | Born To Run | 4:43:05h | 9.54 | M35 | 43rd M · 12th M35 |
| 45 | Facerunning | 4:43:06h | 9.54 | M40 | 44th M · 5th M40 |
| 46 | *Halluin | 4:43:31h | 9.52 | M45 | 45th M · 9th M45 |
| 47 | *Uccle | 4:45:22h | 9.46 | M55 | 46th M · 5th M55 |
| 48 | BDS | 4:46:16h | 9.43 | M40 | 47th M · 6th M40 |
| 49 | Rcabw | 4:46:50h | 9.41 | M23 | 48th M · 12th M23 |
| 50 | *Goes | 4:48:32h | 9.36 | M55 | 49th M · 6th M55 |
- 1Olympique Grand1st M · 1st M45Time3:35:52hPace12.51Cat.M45
- 2*Gent2nd M · 1st M23Time3:44:21hPace12.04Cat.M23
- 3Tjak3rd M · 2nd M23Time3:45:15hPace11.99Cat.M23
- 4Jeroen Vandoorn4th M · 3rd M23Time3:50:10hPace11.73Cat.M23
- 5*Scheldewindeke5th M · 1st M50Time3:54:03hPace11.54Cat.M50
- 6BIR6th M · 1st M35Time3:56:09hPace11.43Cat.M35
- 7*Huy7th M · 2nd M35Time3:59:48hPace11.26Cat.M35
- 8Zatopek Namur8th M · 4th M23Time4:00:35hPace11.22Cat.M23
- 9*Puurs9th M · 5th M23Time4:00:49hPace11.21Cat.M23
- 10Born To Run10th M · 6th M23Time4:03:14hPace11.10Cat.M23
- 11Born To Run11th M · 3rd M35Time4:05:16hPace11.01Cat.M35
- 12*Lasne12th M · 7th M23Time4:06:56hPace10.93Cat.M23
- 13RCB13th M · 1st M40Time4:07:48hPace10.90Cat.M40
- 14Trails.Sazza.de14th M · 2nd M45Time4:08:27hPace10.87Cat.M45
- 15*La Hestre15th M · 3rd M45Time4:10:32hPace10.78Cat.M45
- 16*Lasne16th M · 4th M35Time4:10:50hPace10.76Cat.M35
- 17*Bruxelles17th M · 2nd M40Time4:11:00hPace10.76Cat.M40
- 18Run Attitude18th M · 8th M23Time4:11:37hPace10.73Cat.M23
- 19*Biesmes19th M · 1st M55Time4:16:09hPace10.54Cat.M55
- 20*Torhout20th M · 3rd M40Time4:16:29hPace10.53Cat.M40
- 21Morineau21st M · 2nd M50Time4:16:59hPace10.51Cat.M50
- 22SPT Wavre22nd M · 5th M35Time4:18:15hPace10.46Cat.M35
- 2323rd M · 2nd M55Time4:18:25hPace10.45Cat.M55
- 24*Petit-Enghien/Letteli...24th M · 9th M23Time4:18:28hPace10.45Cat.M23
- 25Gentrunningteam25th M · 3rd M55Time4:18:50hPace10.43Cat.M55
- 26Coachrunning26th M · 4th M45Time4:19:05hPace10.42Cat.M45
- 27Mohammed27th M · 5th M45Time4:21:08hPace10.34Cat.M45
- 28Rtto28th M · 6th M45Time4:21:12hPace10.34Cat.M45
- 29Usbw29th M · 10th M23Time4:22:07hPace10.30Cat.M23
- 30Hiking In Belgi30th M · 6th M35Time4:22:45hPace10.28Cat.M35
- 31Joggingclub WEV31st M · 7th M35Time4:24:10hPace10.22Cat.M35
- 32Team Anna32nd M · 7th M45Time4:24:46hPace10.20Cat.M45
- 33Aclo33rd M · 3rd M50Time4:25:34hPace10.17Cat.M50
- 34VAC34th M · 8th M35Time4:29:52hPace10.01Cat.M35
- 35*Bruxelles35th M · 9th M35Time4:30:28hPace9.98Cat.M35
- 36*Mollem36th M · 11th M23Time4:30:57hPace9.96Cat.M23
- 37*Duffel37th M · 4th M40Time4:33:10hPace9.88Cat.M40
- 38*Luttre38th M · 4th M55Time4:33:12hPace9.88Cat.M55
- 39*Lewarde39th M · 10th M35Time4:33:30hPace9.87Cat.M35
- 40Templeuve40th M · 11th M35Time4:36:47hPace9.76Cat.M35
- 41Facerunnig41st M · 4th M50Time4:36:57hPace9.75Cat.M50
- 42Ultramabouls42nd M · 8th M45Time4:38:41hPace9.69Cat.M45
- 43Trakks1st F · 1st W45Time4:40:07hPace9.64Cat.W45
- 44Born To Run43rd M · 12th M35Time4:43:05hPace9.54Cat.M35
- 45Facerunning44th M · 5th M40Time4:43:06hPace9.54Cat.M40
- 46*Halluin45th M · 9th M45Time4:43:31hPace9.52Cat.M45
- 47*Uccle46th M · 5th M55Time4:45:22hPace9.46Cat.M55
- 48BDS47th M · 6th M40Time4:46:16hPace9.43Cat.M40
- 49Rcabw48th M · 12th M23Time4:46:50hPace9.41Cat.M23
- 50*Goes49th M · 6th M55Time4:48:32hPace9.36Cat.M55
Showing ranks 1–50 of 114